Time;durP1;ratioP1;P1;durP2;ratioP2;P2;SDS_P1;SDS_P2;PMS_P1;PMS_P2;Temp;Humidity;BMP_temperature;BMP_pressure;BME280_temperature;BME280_humidity;BME280_pressure;Samples;Min_cycle;Max_cycle;Signal;HPM_P1;HPM_P2
2022/11/28 00:02:18;;;;;;;22.93;17.10;;;;;;;5.34;65.30;98059.88;8319181;28;20521;-74
2022/11/28 00:06:22;;;;;;;23.13;16.83;;;;;;;6.09;63.29;98066.75;8318930;28;20402;-73
2022/11/28 00:10:25;;;;;;;24.60;17.63;;;;;;;6.05;61.64;98037.69;8318813;28;20234;-73
2022/11/28 00:14:27;;;;;;;22.50;16.73;;;;;;;6.48;62.17;98069.22;8318267;28;20230;-74
2022/11/28 00:18:31;;;;;;;20.03;15.73;;;;;;;6.30;62.00;98050.78;8318575;28;20236;-74
2022/11/28 00:22:34;;;;;;;22.57;16.40;;;;;;;6.12;63.30;98038.41;8318413;28;20438;-73
2022/11/28 00:26:38;;;;;;;19.57;14.83;;;;;;;6.39;62.44;98045.41;8318231;28;20299;-73
2022/11/28 00:30:41;;;;;;;24.00;16.43;;;;;;;5.48;64.91;98027.03;8318013;28;20229;-73
2022/11/28 00:34:45;;;;;;;21.50;16.30;;;;;;;5.38;65.36;98005.00;8318001;28;20449;-74
2022/11/28 00:38:50;;;;;;;20.63;15.80;;;;;;;5.70;64.62;98000.00;8317560;28;20273;-73
2022/11/28 00:42:53;;;;;;;23.73;16.17;;;;;;;6.32;62.82;97996.72;8317280;28;20276;-72
2022/11/28 00:46:55;;;;;;;20.27;15.43;;;;;;;6.29;62.83;98002.81;8317420;28;20257;-73
2022/11/28 00:51:07;;;;;;;20.97;15.90;;;;;;;5.38;65.30;97986.19;8317719;28;20233;-74
2022/11/28 00:55:09;;;;;;;22.87;16.40;;;;;;;5.53;64.94;97985.81;8317240;28;20243;-74
2022/11/28 00:59:12;;;;;;;22.07;16.30;;;;;;;5.99;63.71;97987.28;8317103;28;20308;-73
2022/11/28 01:03:15;;;;;;;22.97;16.77;;;;;;;5.25;66.21;97972.78;8317131;28;20280;-73
2022/11/28 01:07:19;;;;;;;23.03;16.47;;;;;;;5.40;66.13;97969.00;8316328;28;20232;-73
2022/11/28 01:11:23;;;;;;;23.00;16.53;;;;;;;5.14;66.58;97934.53;8316891;28;20226;-72
2022/11/28 01:15:25;;;;;;;22.30;16.03;;;;;;;5.39;67.18;97944.22;8316477;28;20230;-74
2022/11/28 01:19:28;;;;;;;24.77;16.10;;;;;;;5.09;68.00;97942.31;8316656;28;20244;-74
2022/11/28 01:23:33;;;;;;;24.13;16.33;;;;;;;5.04;67.65;97944.13;8316665;28;20230;-72
2022/11/28 01:27:35;;;;;;;24.23;16.70;;;;;;;5.35;67.00;97933.19;8316062;28;20229;-73
2022/11/28 01:31:38;;;;;;;22.93;16.17;;;;;;;4.79;68.45;97930.16;8316343;28;20221;-73
2022/11/28 01:35:41;;;;;;;21.63;15.37;;;;;;;5.33;67.16;97926.38;8316072;28;20304;-73
2022/11/28 01:39:45;;;;;;;22.83;16.73;;;;;;;5.66;65.43;97912.69;8316048;28;20222;-73
2022/11/28 01:44:06;;;;;;;22.60;15.47;;;;;;;5.70;66.21;97902.34;8315824;28;20288;-73
2022/11/28 01:48:11;;;;;;;21.97;16.13;;;;;;;5.31;67.33;97892.19;8315653;28;20237;-73
2022/11/28 01:52:16;;;;;;;22.70;16.37;;;;;;;5.15;68.11;97876.31;8315666;28;20506;-73
2022/11/28 01:56:22;;;;;;;23.10;16.33;;;;;;;5.42;67.46;97867.91;8315441;28;20234;-73
2022/11/28 02:00:25;;;;;;;24.60;17.00;;;;;;;5.38;67.36;97879.16;8315248;28;20229;-73
2022/11/28 02:04:28;;;;;;;24.03;16.67;;;;;;;5.21;67.62;97882.13;8315228;28;20230;-75
2022/11/28 02:08:32;;;;;;;20.83;16.23;;;;;;;5.32;67.89;97886.19;8315020;28;20230;-74
2022/11/28 02:12:50;;;;;;;23.43;17.20;;;;;;;4.80;69.40;97863.44;8315395;28;20225;-74
2022/11/28 02:17:03;;;;;;;26.00;16.77;;;;;;;4.57;70.77;97851.13;8314086;28;20235;-73
2022/11/28 02:21:23;;;;;;;22.97;16.47;;;;;;;4.39;71.83;97819.00;8314399;28;20236;-75
2022/11/28 02:25:56;;;;;;;22.13;16.30;;;;;;;4.49;71.93;97830.78;8314790;28;20240;-74
2022/11/28 02:30:15;;;;;;;21.13;15.47;;;;;;;5.64;67.92;97868.22;8313617;28;20226;-74
2022/11/28 02:34:25;;;;;;;22.03;15.87;;;;;;;5.42;67.88;97855.06;8314705;28;20241;-74
2022/11/28 02:38:39;;;;;;;23.20;16.17;;;;;;;4.78;71.30;97836.97;8314716;28;20230;-74
2022/11/28 02:42:50;;;;;;;21.43;15.77;;;;;;;5.37;69.41;97845.78;8314730;28;20249;-74
2022/11/28 02:46:58;;;;;;;21.70;14.93;;;;;;;5.58;68.25;97842.69;8314178;28;20426;-73
2022/11/28 02:51:07;;;;;;;22.07;15.97;;;;;;;5.03;70.12;97847.50;8314388;28;20230;-74
2022/11/28 02:55:11;;;;;;;19.60;15.00;;;;;;;5.94;67.49;97855.44;8314047;28;20526;-74
2022/11/28 02:59:31;;;;;;;23.00;16.60;;;;;;;5.52;68.23;97831.72;8314016;28;20321;-74
2022/11/28 03:03:42;;;;;;;20.50;14.43;;;;;;;5.94;67.85;97845.16;8313704;28;20222;-74
2022/11/28 03:07:58;;;;;;;19.47;14.67;;;;;;;5.70;67.23;97820.97;8313733;28;20226;-74
2022/11/28 03:12:09;;;;;;;21.30;15.40;;;;;;;5.22;69.31;97790.56;8313356;28;20226;-74
2022/11/28 03:16:18;;;;;;;19.27;14.90;;;;;;;5.56;68.87;97798.22;8313548;28;20251;-75
2022/11/28 03:20:24;;;;;;;21.17;15.10;;;;;;;5.76;67.54;97799.41;8313793;28;20253;-74
2022/11/28 03:24:34;;;;;;;19.90;14.63;;;;;;;5.16;70.01;97786.44;8313838;28;20230;-75
2022/11/28 03:28:42;;;;;;;22.10;16.30;;;;;;;5.11;70.13;97785.69;8313401;28;20246;-75
2022/11/28 03:32:48;;;;;;;25.10;15.97;;;;;;;4.94;70.56;97764.75;8319469;28;20230;-74
2022/11/28 03:36:52;;;;;;;21.83;15.70;;;;;;;5.12;70.36;97776.25;8319352;28;20241;-75
2022/11/28 03:40:59;;;;;;;18.53;14.93;;;;;;;5.11;70.15;97778.00;8318890;28;20234;-74
2022/11/28 03:45:05;;;;;;;20.33;14.80;;;;;;;5.51;68.40;97801.81;8319180;28;20225;-74
2022/11/28 03:49:09;;;;;;;18.37;13.77;;;;;;;5.90;67.42;97812.69;8319274;28;20263;-74
2022/11/28 03:53:16;;;;;;;22.70;15.17;;;;;;;6.03;66.75;97810.66;8319110;28;20271;-75
2022/11/28 03:57:25;;;;;;;19.53;14.47;;;;;;;6.34;64.85;97813.19;8318692;28;20517;-75
2022/11/28 04:01:32;;;;;;;21.43;14.93;;;;;;;5.77;66.63;97801.06;8318755;28;20234;-74
2022/11/28 04:05:40;;;;;;;20.63;14.63;;;;;;;5.44;68.31;97788.25;8318475;28;20230;-74
2022/11/28 04:09:47;;;;;;;19.63;14.70;;;;;;;5.31;68.17;97782.59;8318539;28;20242;-74
2022/11/28 04:13:54;;;;;;;19.50;14.83;;;;;;;6.10;65.89;97773.59;8318341;28;20230;-74
2022/11/28 04:17:59;;;;;;;16.67;13.57;;;;;;;5.96;66.59;97779.16;8317851;28;20522;-74
2022/11/28 04:22:04;;;;;;;18.97;13.87;;;;;;;6.30;65.25;97775.56;8317969;28;20249;-74
2022/11/28 04:26:10;;;;;;;18.63;14.33;;;;;;;5.71;66.37;97767.84;8317690;28;20230;-74
2022/11/28 04:30:15;;;;;;;20.10;15.10;;;;;;;5.87;65.81;97763.97;8317974;28;20230;-75
2022/11/28 04:34:20;;;;;;;20.07;14.50;;;;;;;6.05;66.11;97783.19;8317782;28;20229;-74
2022/11/28 04:38:25;;;;;;;16.83;13.10;;;;;;;6.62;64.24;97790.03;8317560;28;20249;-75
2022/11/28 04:42:32;;;;;;;19.00;14.27;;;;;;;6.69;63.72;97803.56;8316562;28;20241;-74
2022/11/28 04:46:40;;;;;;;17.87;14.57;;;;;;;6.87;63.22;97807.25;8317337;28;20288;-74
2022/11/28 04:50:46;;;;;;;20.17;14.57;;;;;;;7.04;62.86;97791.28;8317251;28;20316;-75
2022/11/28 04:54:56;;;;;;;19.17;15.57;;;;;;;6.70;64.27;97800.09;8317001;28;20226;-74
2022/11/28 04:58:59;;;;;;;19.60;14.57;;;;;;;6.78;63.77;97774.13;8316385;28;20230;-74
2022/11/28 05:03:05;;;;;;;18.13;14.30;;;;;;;5.58;67.12;97747.66;8317027;28;20391;-74
2022/11/28 05:07:08;;;;;;;20.80;15.93;;;;;;;4.85;70.58;97702.50;8316812;28;20234;-74
2022/11/28 05:11:11;;;;;;;21.63;15.93;;;;;;;4.84;71.39;97690.56;8316627;28;20260;-75
2022/11/28 05:15:17;;;;;;;20.87;15.70;;;;;;;4.98;70.23;97681.66;8316220;28;20282;-74
2022/11/28 05:19:22;;;;;;;22.33;15.47;;;;;;;5.15;69.62;97702.59;8316093;28;20254;-74
2022/11/28 05:23:25;;;;;;;22.13;15.27;;;;;;;5.01;70.85;97690.13;8316508;28;20234;-74
2022/11/28 05:27:27;;;;;;;19.87;15.33;;;;;;;5.74;68.35;97704.38;8316152;28;20295;-74
2022/11/28 05:31:30;;;;;;;19.40;15.47;;;;;;;5.75;67.85;97706.06;8316144;28;20289;-74
2022/11/28 05:35:34;;;;;;;21.30;16.10;;;;;;;5.41;68.58;97701.88;8315760;28;20225;-74
2022/11/28 05:39:37;;;;;;;20.97;16.37;;;;;;;5.41;69.06;97685.63;8315781;28;20223;-74
2022/11/28 05:43:40;;;;;;;21.27;16.17;;;;;;;4.83;70.42;97683.72;8315620;28;20277;-74
2022/11/28 05:47:43;;;;;;;20.37;15.70;;;;;;;5.22;69.46;97700.72;8315370;28;20241;-75
2022/11/28 05:51:47;;;;;;;20.00;15.30;;;;;;;4.85;70.58;97665.72;8315517;28;20234;-74
2022/11/28 05:55:50;;;;;;;22.07;16.23;;;;;;;5.52;69.83;97742.69;8315224;28;20226;-74
2022/11/28 05:59:53;;;;;;;19.83;15.17;;;;;;;6.21;65.99;97757.88;8314914;28;20408;-74
2022/11/28 06:03:59;;;;;;;22.80;17.57;;;;;;;5.90;66.45;97739.91;8315020;28;20555;-73
2022/11/28 06:08:04;;;;;;;18.70;14.50;;;;;;;6.57;65.14;97748.19;8314849;28;20245;-74
2022/11/28 06:12:07;;;;;;;19.60;15.33;;;;;;;6.64;64.78;97721.38;8315153;28;20257;-74
2022/11/28 06:16:11;;;;;;;21.40;16.17;;;;;;;6.24;64.82;97696.03;8314453;28;20241;-74
2022/11/28 06:20:14;;;;;;;20.03;15.37;;;;;;;6.69;64.49;97717.78;8314800;28;20240;-75
2022/11/28 06:24:21;;;;;;;19.37;15.73;;;;;;;6.18;65.04;97727.94;8313949;28;20230;-75
2022/11/28 06:28:26;;;;;;;21.43;16.03;;;;;;;5.79;66.85;97710.22;8309743;28;20234;-74
2022/11/28 06:32:28;;;;;;;22.47;16.77;;;;;;;5.64;67.69;97706.38;8314713;28;20237;-73
2022/11/28 06:36:31;;;;;;;23.40;16.77;;;;;;;5.97;67.25;97716.56;8314512;28;20304;-74
2022/11/28 06:40:37;;;;;;;23.57;18.10;;;;;;;5.69;67.70;97713.94;8314503;28;20455;-73
2022/11/28 06:44:40;;;;;;;22.67;17.50;;;;;;;5.82;67.82;97724.69;8313977;28;20226;-74
2022/11/28 06:48:43;;;;;;;21.90;16.83;;;;;;;5.78;65.89;97720.53;8314336;28;20237;-74
2022/11/28 06:52:46;;;;;;;19.17;16.37;;;;;;;5.36;68.23;97692.63;8314311;28;20229;-74
2022/11/28 06:56:50;;;;;;;19.63;15.60;;;;;;;5.76;66.96;97686.34;8313863;28;20237;-74
2022/11/28 07:00:53;;;;;;;21.43;15.90;;;;;;;6.05;65.56;97713.75;8313658;28;20226;-73
2022/11/28 07:04:55;;;;;;;22.67;17.80;;;;;;;5.32;67.72;97694.44;8316564;28;20549;-73
2022/11/28 07:08:59;;;;;;;22.40;18.20;;;;;;;5.36;67.14;97682.34;8320465;28;20288;-73
2022/11/28 07:13:03;;;;;;;20.13;17.33;;;;;;;5.37;68.17;97687.44;8320301;28;20230;-73
2022/11/28 07:17:07;;;;;;;19.27;16.80;;;;;;;5.82;65.95;97688.72;8320262;28;20230;-74
2022/11/28 07:21:10;;;;;;;21.47;16.57;;;;;;;5.87;66.75;97697.16;8320261;28;20620;-74
2022/11/28 07:25:13;;;;;;;21.80;16.80;;;;;;;5.76;65.93;97709.47;8320014;28;20237;-74
2022/11/28 07:29:18;;;;;;;21.27;16.90;;;;;;;6.42;64.62;97730.66;8320018;28;20230;-74
2022/11/28 07:33:21;;;;;;;21.43;16.17;;;;;;;6.39;64.21;97744.44;8319643;28;20556;-73
2022/11/28 07:37:23;;;;;;;21.03;17.70;;;;;;;6.29;64.17;97740.47;8319545;28;20230;-74
2022/11/28 07:41:27;;;;;;;22.63;18.30;;;;;;;5.59;65.84;97703.06;8319209;28;20522;-74
2022/11/28 07:45:31;;;;;;;20.90;16.50;;;;;;;6.26;64.52;97727.69;8319668;28;20522;-73
2022/11/28 07:49:54;;;;;;;18.80;15.60;;;;;;;6.03;66.16;97723.25;8318861;28;20301;-73
2022/11/28 07:53:57;;;;;;;24.90;18.10;;;;;;;6.15;64.86;97717.75;8318959;28;20464;-73
2022/11/28 07:58:00;;;;;;;21.47;16.83;;;;;;;6.19;64.75;97727.06;8319113;28;20236;-73
2022/11/28 08:02:04;;;;;;;21.17;16.43;;;;;;;6.45;64.19;97731.41;8319173;28;20546;-73
2022/11/28 08:06:08;;;;;;;20.50;16.63;;;;;;;6.61;63.28;97729.16;8318950;28;20294;-74
2022/11/28 08:10:10;;;;;;;21.10;16.50;;;;;;;6.44;64.04;97714.28;8318692;28;20292;-74
2022/11/28 08:14:14;;;;;;;23.23;18.03;;;;;;;6.19;65.38;97719.34;8318426;28;20238;-74
2022/11/28 08:18:18;;;;;;;23.43;17.67;;;;;;;6.55;64.02;97725.94;8317554;28;20253;-74
2022/11/28 08:22:21;;;;;;;21.70;16.87;;;;;;;5.98;65.66;97722.56;8318039;28;20238;-73
2022/11/28 08:26:26;;;;;;;20.40;16.13;;;;;;;6.13;65.81;97723.81;8317967;28;20277;-74
2022/11/28 08:30:32;;;;;;;21.53;17.77;;;;;;;6.03;66.32;97721.53;8318056;28;20232;-74
2022/11/28 08:34:37;;;;;;;21.10;16.20;;;;;;;6.58;64.20;97715.56;8318039;28;20461;-74
2022/11/28 08:38:41;;;;;;;19.93;17.03;;;;;;;5.94;66.50;97719.22;8317748;28;20256;-74
2022/11/28 08:42:55;;;;;;;21.87;16.50;;;;;;;6.43;64.09;97710.00;8317035;28;20298;-74
2022/11/28 08:46:57;;;;;;;20.47;16.77;;;;;;;6.00;65.92;97716.50;8317474;28;20230;-74
2022/11/28 08:51:02;;;;;;;19.40;15.50;;;;;;;6.59;64.40;97718.09;8317183;28;20226;-74
2022/11/28 08:55:05;;;;;;;21.00;16.37;;;;;;;6.22;65.91;97724.38;8317340;28;20550;-74
2022/11/28 08:59:09;;;;;;;22.10;17.03;;;;;;;6.17;65.10;97717.69;8317073;28;20545;-74
2022/11/28 09:03:14;;;;;;;21.33;17.17;;;;;;;6.20;66.09;97730.47;8316609;28;20242;-74
2022/11/28 09:07:19;;;;;;;18.33;15.27;;;;;;;6.80;64.53;97729.41;8316850;28;20226;-74
2022/11/28 09:11:22;;;;;;;21.07;16.17;;;;;;;7.04;63.93;97732.91;8316508;28;20276;-75
2022/11/28 09:15:25;;;;;;;20.57;16.90;;;;;;;6.53;64.08;97731.16;8316245;28;20277;-75
2022/11/28 09:19:28;;;;;;;20.90;17.67;;;;;;;6.55;63.84;97726.81;8316500;28;20292;-75
2022/11/28 09:23:32;;;;;;;21.83;16.13;;;;;;;6.65;63.92;97720.47;8316487;28;20269;-75
2022/11/28 09:27:35;;;;;;;24.23;16.97;;;;;;;6.73;63.89;97721.94;8316189;28;20237;-75
2022/11/28 09:31:38;;;;;;;20.90;16.00;;;;;;;6.62;64.16;97701.69;8316211;28;20298;-76
2022/11/28 09:35:47;;;;;;;20.80;16.67;;;;;;;6.91;62.92;97708.47;8316294;28;20457;-76
2022/11/28 09:39:52;;;;;;;20.60;16.73;;;;;;;6.90;63.13;97703.38;8315827;28;20292;-76
2022/11/28 09:44:20;;;;;;;21.77;16.83;;;;;;;6.43;64.67;97702.28;8315488;28;20448;-75
2022/11/28 09:48:26;;;;;;;21.10;15.97;;;;;;;7.12;68.89;97700.88;8315828;28;20226;-78
2022/11/28 09:52:32;;;;;;;20.20;15.67;;;;;;;6.95;67.02;97709.19;8316007;28;20429;-76
2022/11/28 09:56:39;;;;;;;20.60;15.90;;;;;;;7.04;62.76;97714.03;8315863;28;20227;-74
2022/11/28 10:00:46;;;;;;;20.77;16.83;;;;;;;6.58;63.26;97718.97;8315316;28;20284;-74
2022/11/28 10:05:03;;;;;;;23.90;18.50;;;;;;;6.76;63.58;97721.81;8315120;28;20230;-74
2022/11/28 10:09:16;;;;;;;20.70;18.50;;;;;;;7.13;62.18;97725.75;8313898;28;20707;-73
2022/11/28 10:13:26;;;;;;;21.57;16.03;;;;;;;7.15;61.28;97719.66;8315120;28;20390;-73
2022/11/28 10:17:54;;;;;;;22.13;16.83;;;;;;;7.08;62.52;97722.50;8314690;28;20280;-72
2022/11/28 10:22:00;;;;;;;20.23;17.33;;;;;;;7.14;61.95;97715.41;8314394;28;20226;-73
2022/11/28 10:26:06;;;;;;;21.93;17.73;;;;;;;6.94;62.56;97715.25;8314562;28;20233;-73
2022/11/28 10:30:16;;;;;;;21.03;15.97;;;;;;;7.16;62.12;97705.91;8314382;28;20298;-73
2022/11/28 10:34:24;;;;;;;21.20;16.33;;;;;;;7.24;62.10;97703.88;8314689;28;20534;-73
2022/11/28 10:38:29;;;;;;;19.73;16.33;;;;;;;7.52;62.13;97700.34;8313683;28;20261;-73
2022/11/28 10:42:36;;;;;;;20.10;16.23;;;;;;;7.62;61.58;97699.09;8314064;28;20222;-74
2022/11/28 10:46:51;;;;;;;20.37;16.43;;;;;;;7.72;60.38;97702.16;8314458;28;20509;-74
2022/11/28 10:51:01;;;;;;;20.10;16.43;;;;;;;7.92;60.76;97698.84;8313657;28;20421;-74
2022/11/28 10:55:23;;;;;;;22.13;16.27;;;;;;;7.87;59.54;97711.06;8314157;28;20234;-74
2022/11/28 10:59:34;;;;;;;22.90;18.27;;;;;;;7.89;59.50;97708.44;8314003;28;20418;-73
2022/11/28 11:03:40;;;;;;;21.20;16.47;;;;;;;7.33;61.07;97712.16;8314225;28;20226;-74
2022/11/28 11:07:47;;;;;;;22.47;18.20;;;;;;;7.85;60.26;97694.81;8313788;28;20230;-74
2022/11/28 11:11:54;;;;;;;20.17;15.53;;;;;;;7.72;60.13;97704.75;8313556;28;20246;-73
2022/11/28 11:15:59;;;;;;;19.50;16.53;;;;;;;7.31;61.93;97696.78;8313104;28;20230;-73
2022/11/28 11:20:23;;;;;;;20.83;16.83;;;;;;;7.70;60.34;97695.41;8313431;28;20234;-74
2022/11/28 11:24:26;;;;;;;20.00;16.87;;;;;;;7.14;63.16;97689.66;8313543;28;20249;-73
2022/11/28 11:28:41;;;;;;;22.17;17.80;;;;;;;7.57;61.79;97687.28;8313594;28;20230;-73
2022/11/28 11:32:46;;;;;;;21.80;18.03;;;;;;;7.97;60.46;97673.72;8313393;28;20222;-73
2022/11/28 11:37:18;;;;;;;20.80;17.43;;;;;;;7.60;61.32;97679.44;8313115;28;20245;-73
2022/11/28 11:41:29;;;;;;;20.47;17.00;;;;;;;8.28;60.21;97682.00;8313264;28;20285;-73
2022/11/28 11:45:33;;;;;;;23.90;18.80;;;;;;;7.53;60.57;97673.66;8313517;28;20576;-74
2022/11/28 11:49:37;;;;;;;20.90;17.40;;;;;;;7.91;59.77;97691.19;8313531;28;20254;-73
2022/11/28 11:53:41;;;;;;;20.77;17.53;;;;;;;7.49;61.45;97697.03;8319116;28;20396;-74
2022/11/28 11:57:47;;;;;;;22.03;17.80;;;;;;;8.25;58.86;97690.72;8318646;28;20230;-74
2022/11/28 12:01:59;;;;;;;20.60;17.33;;;;;;;8.31;59.69;97687.88;8318737;28;20233;-74
2022/11/28 12:06:05;;;;;;;19.93;17.80;;;;;;;7.44;61.37;97692.03;8318383;28;20233;-73
2022/11/28 12:10:20;;;;;;;22.23;18.07;;;;;;;7.91;60.31;97689.44;8318891;28;20234;-74
2022/11/28 12:14:29;;;;;;;21.17;18.00;;;;;;;7.93;60.15;97679.06;8314276;28;20250;-75
2022/11/28 12:18:39;;;;;;;20.53;16.67;;;;;;;8.19;59.58;97668.56;8286083;28;20231;-75
2022/11/28 12:22:48;;;;;;;18.80;16.57;;;;;;;8.07;60.48;97674.19;8285736;28;20483;-73
2022/11/28 12:27:00;;;;;;;21.70;18.20;;;;;;;7.86;60.48;97669.88;8285472;28;20299;-73
2022/11/28 12:31:12;;;;;;;24.27;18.20;;;;;;;7.93;60.73;97663.59;8285305;28;20233;-72
2022/11/28 12:35:24;;;;;;;19.53;16.07;;;;;;;8.47;58.64;97649.41;8285607;28;20461;-73
2022/11/28 12:39:36;;;;;;;19.60;17.00;;;;;;;8.68;58.40;97650.31;8285424;28;20239;-73
2022/11/28 12:43:51;;;;;;;20.40;17.53;;;;;;;7.93;60.30;97645.53;8285121;28;20256;-73
2022/11/28 12:48:02;;;;;;;19.27;17.27;;;;;;;8.26;59.87;97652.84;8284705;28;20231;-72
2022/11/28 12:52:15;;;;;;;19.53;16.10;;;;;;;8.22;59.79;97655.56;8285015;28;20589;-72
2022/11/28 12:56:29;;;;;;;22.13;18.40;;;;;;;8.33;59.53;97647.38;8284796;28;20230;-73
2022/11/28 13:00:33;;;;;;;20.77;16.90;;;;;;;8.48;59.57;97651.13;8284806;28;20281;-73
2022/11/28 13:04:53;;;;;;;20.67;18.47;;;;;;;7.66;61.36;97644.88;8283980;28;20234;-73
2022/11/28 13:09:03;;;;;;;21.27;17.23;;;;;;;8.10;59.89;97658.63;8284914;28;20258;-74
2022/11/28 13:13:09;;;;;;;20.73;17.57;;;;;;;7.88;60.77;97647.44;8286075;28;20242;-73
2022/11/28 13:17:22;;;;;;;18.30;16.40;;;;;;;7.98;60.26;97641.06;8294385;28;20231;-74
2022/11/28 13:21:32;;;;;;;18.43;16.27;;;;;;;8.34;59.93;97622.41;8285176;28;20231;-74
2022/11/28 13:25:39;;;;;;;18.93;15.97;;;;;;;8.43;59.82;97655.63;8284414;28;20227;-74
2022/11/28 13:29:46;;;;;;;19.67;17.57;;;;;;;8.68;58.76;97660.63;8284129;28;20234;-70
2022/11/28 13:33:52;;;;;;;21.93;18.27;;;;;;;8.36;59.06;97651.59;8283594;28;20286;-71
2022/11/28 13:37:59;;;;;;;22.10;18.00;;;;;;;8.33;59.22;97654.28;8283329;28;20261;-70
2022/11/28 13:42:31;;;;;;;23.83;18.70;;;;;;;7.95;61.25;97662.63;8283054;28;20230;-71
2022/11/28 13:46:54;;;;;;;23.80;18.03;;;;;;;8.29;60.14;97660.47;8282636;28;20354;-71
2022/11/28 13:51:01;;;;;;;20.50;17.10;;;;;;;8.03;61.22;97650.28;8283177;28;20238;-71
2022/11/28 13:55:04;;;;;;;21.70;18.47;;;;;;;7.91;62.16;97643.03;8282847;28;20234;-71
2022/11/28 13:59:17;;;;;;;22.20;19.23;;;;;;;8.02;61.72;97640.88;8283200;28;20258;-71
2022/11/28 14:03:20;;;;;;;24.23;19.23;;;;;;;7.72;62.45;97647.22;8282980;28;20227;-71
2022/11/28 14:07:29;;;;;;;23.73;19.07;;;;;;;7.92;61.97;97651.59;8282918;28;20237;-70
2022/11/28 14:11:46;;;;;;;24.73;20.10;;;;;;;7.82;61.43;97653.69;8282605;28;20230;-71
2022/11/28 14:15:58;;;;;;;26.33;18.77;;;;;;;7.78;62.00;97658.09;8281662;28;20330;-71
2022/11/28 14:20:12;;;;;;;21.63;17.77;;;;;;;8.21;60.50;97658.19;8282117;28;20293;-71
2022/11/28 14:24:22;;;;;;;23.67;19.60;;;;;;;8.06;61.02;97625.28;8282495;28;20235;-72
2022/11/28 14:28:26;;;;;;;25.83;18.77;;;;;;;8.30;60.44;97654.41;8282139;28;20223;-72
2022/11/28 14:32:34;;;;;;;20.93;17.83;;;;;;;8.40;60.73;97660.88;8282426;28;20514;-71
2022/11/28 14:36:40;;;;;;;19.43;17.10;;;;;;;8.38;60.88;97667.84;8282068;28;20395;-69
2022/11/28 14:41:07;;;;;;;20.30;16.57;;;;;;;8.67;59.92;97676.19;8281897;28;20231;-70
2022/11/28 14:45:39;;;;;;;22.17;18.63;;;;;;;8.59;60.13;97682.50;8281611;28;20222;-71
2022/11/28 14:49:42;;;;;;;20.63;18.13;;;;;;;8.03;62.80;97678.66;8281921;28;20242;-71
2022/11/28 14:53:47;;;;;;;24.57;19.53;;;;;;;8.46;62.03;97673.56;8282057;28;20530;-71
2022/11/28 14:57:56;;;;;;;23.70;19.50;;;;;;;8.34;62.58;97681.75;8281774;28;20269;-71
2022/11/28 15:02:03;;;;;;;24.17;18.00;;;;;;;8.15;63.66;97681.66;8281406;28;20232;-70
2022/11/28 15:06:16;;;;;;;21.87;18.03;;;;;;;8.20;63.61;97671.97;8281717;28;20412;-70
2022/11/28 15:10:23;;;;;;;25.10;19.47;;;;;;;8.17;64.18;97672.13;8281343;28;20249;-70
2022/11/28 15:14:29;;;;;;;23.07;18.60;;;;;;;8.14;64.57;97667.91;8286078;28;20235;-71
2022/11/28 15:18:33;;;;;;;26.87;21.77;;;;;;;8.12;65.65;97674.03;8314137;28;20520;-72
2022/11/28 15:22:39;;;;;;;23.40;20.00;;;;;;;8.14;65.82;97657.59;8313549;28;20230;-71
2022/11/28 15:26:43;;;;;;;26.53;21.40;;;;;;;7.98;66.01;97665.09;8316405;28;20222;-71
2022/11/28 15:30:50;;;;;;;27.03;22.30;;;;;;;7.95;66.19;97670.34;8319590;28;20235;-71
2022/11/28 15:34:55;;;;;;;27.00;21.17;;;;;;;8.23;66.14;97664.97;8319354;28;20234;-69
2022/11/28 15:38:58;;;;;;;27.63;20.33;;;;;;;7.95;66.56;97660.03;8319492;28;20305;-71
2022/11/28 15:43:03;;;;;;;24.30;21.67;;;;;;;7.79;67.17;97654.66;8319180;28;20292;-71
2022/11/28 15:47:18;;;;;;;30.97;25.47;;;;;;;8.07;65.83;97650.16;8319275;28;20230;-71
2022/11/28 15:51:26;;;;;;;26.17;21.50;;;;;;;8.13;66.33;97653.34;8319073;28;20226;-71
2022/11/28 15:55:31;;;;;;;24.40;21.63;;;;;;;7.84;66.28;97664.78;8319234;28;20234;-71
2022/11/28 15:59:34;;;;;;;26.77;20.80;;;;;;;8.20;65.46;97666.81;8318749;28;20241;-70
2022/11/28 16:03:43;;;;;;;26.27;21.63;;;;;;;7.90;66.91;97664.56;8318772;28;20230;-70
2022/11/28 16:07:47;;;;;;;25.20;20.50;;;;;;;7.79;67.59;97658.97;8318603;28;20235;-70
2022/11/28 16:11:52;;;;;;;23.80;20.57;;;;;;;7.62;67.56;97647.56;8318616;28;20237;-71
2022/11/28 16:15:57;;;;;;;23.37;19.67;;;;;;;8.17;66.14;97659.22;8317941;28;20231;-68
2022/11/28 16:20:02;;;;;;;24.67;20.63;;;;;;;7.71;67.18;97661.84;8318568;28;20241;-70
2022/11/28 16:24:16;;;;;;;24.37;21.20;;;;;;;7.77;66.86;97647.88;8318331;28;20230;-70
2022/11/28 16:28:31;;;;;;;25.90;21.97;;;;;;;7.43;67.82;97643.97;8317919;28;20272;-71
2022/11/28 16:32:37;;;;;;;25.83;21.20;;;;;;;7.34;68.77;97662.34;8317833;28;20445;-71
2022/11/28 16:36:42;;;;;;;24.37;21.23;;;;;;;7.51;67.70;97662.56;8316945;28;20268;-71
2022/11/28 16:40:45;;;;;;;27.73;22.87;;;;;;;7.42;68.85;97662.91;8317492;28;20241;-71
2022/11/28 16:44:48;;;;;;;26.07;20.37;;;;;;;8.05;66.57;97659.69;8317592;28;20232;-72
2022/11/28 16:48:54;;;;;;;29.17;24.47;;;;;;;7.54;68.83;97653.88;8317538;28;20292;-73
2022/11/28 16:52:58;;;;;;;28.60;22.67;;;;;;;7.90;67.29;97661.13;8316805;28;20233;-72
2022/11/28 16:57:09;;;;;;;29.00;22.37;;;;;;;7.99;66.62;97669.34;8317210;28;20300;-72
2022/11/28 17:01:12;;;;;;;30.17;25.37;;;;;;;7.50;68.12;97675.50;8316920;28;20249;-72
2022/11/28 17:05:15;;;;;;;28.17;23.33;;;;;;;8.19;66.09;97665.16;8317169;28;20226;-72
2022/11/28 17:09:19;;;;;;;29.17;22.53;;;;;;;8.09;66.48;97674.16;8316598;28;20409;-72
2022/11/28 17:13:22;;;;;;;27.07;23.70;;;;;;;8.04;65.77;97666.59;8316593;28;20226;-72
2022/11/28 17:17:25;;;;;;;29.60;23.27;;;;;;;8.02;65.95;97673.56;8316432;28;20447;-72
2022/11/28 17:21:33;;;;;;;28.03;24.00;;;;;;;7.62;67.32;97662.19;8316571;28;20417;-73
2022/11/28 17:25:37;;;;;;;29.13;23.60;;;;;;;7.80;67.36;97668.38;8316182;28;20444;-72
2022/11/28 17:29:40;;;;;;;27.47;22.57;;;;;;;7.70;66.87;97673.03;8315983;28;20230;-72
2022/11/28 17:33:43;;;;;;;28.77;23.90;;;;;;;7.41;68.08;97672.38;8316179;28;20233;-72
2022/11/28 17:37:46;;;;;;;26.87;22.17;;;;;;;7.69;67.67;97675.66;8316173;28;20388;-72
2022/11/28 17:41:51;;;;;;;25.33;22.10;;;;;;;8.16;66.26;97676.44;8315689;28;20246;-72
2022/11/28 17:45:54;;;;;;;26.77;23.07;;;;;;;7.70;67.23;97669.63;8315577;28;20514;-71
2022/11/28 17:49:57;;;;;;;26.87;23.60;;;;;;;7.65;68.06;97669.78;8315569;28;20230;-71
2022/11/28 17:54:00;;;;;;;28.00;22.00;;;;;;;8.02;67.02;97670.97;8315410;28;20226;-71
2022/11/28 17:58:04;;;;;;;28.03;23.80;;;;;;;7.48;67.86;97656.69;8315260;28;20230;-72
2022/11/28 18:02:10;;;;;;;25.50;21.43;;;;;;;7.64;68.70;97676.69;8315249;28;20231;-72
2022/11/28 18:06:16;;;;;;;28.73;24.13;;;;;;;7.90;67.05;97672.28;8315249;28;20242;-71
2022/11/28 18:10:19;;;;;;;41.10;27.90;;;;;;;7.57;68.69;97674.38;8315028;28;20237;-74
2022/11/28 18:14:23;;;;;;;25.97;23.03;;;;;;;7.37;68.63;97670.81;8314777;28;20227;-73
2022/11/28 18:18:26;;;;;;;29.07;23.53;;;;;;;7.23;69.15;97673.03;8314645;28;20230;-72
2022/11/28 18:22:28;;;;;;;29.43;24.43;;;;;;;7.70;68.38;97667.88;8314618;28;20246;-72
2022/11/28 18:26:31;;;;;;;31.10;24.83;;;;;;;7.37;69.30;97663.09;8314482;28;20537;-71
2022/11/28 18:30:35;;;;;;;28.77;24.23;;;;;;;7.44;69.01;97659.41;8314560;28;20233;-73
2022/11/28 18:34:38;;;;;;;30.20;24.90;;;;;;;7.47;69.24;97663.59;8314510;28;20234;-72
2022/11/28 18:38:43;;;;;;;27.20;23.83;;;;;;;7.23;69.56;97662.72;8314641;28;20276;-72
2022/11/28 18:42:46;;;;;;;24.90;22.17;;;;;;;7.54;68.52;97662.47;8314302;28;20427;-72
2022/11/28 18:46:50;;;;;;;26.87;23.57;;;;;;;7.59;68.23;97676.00;8314405;28;20226;-72
2022/11/28 18:50:53;;;;;;;30.30;25.23;;;;;;;7.26;68.45;97674.66;8314063;28;20250;-72
2022/11/28 18:54:56;;;;;;;25.30;22.47;;;;;;;7.47;68.59;97671.31;8314059;28;20233;-72
2022/11/28 18:58:58;;;;;;;30.27;24.80;;;;;;;7.77;68.10;97676.25;8314118;28;20235;-72
2022/11/28 19:03:03;;;;;;;37.63;28.10;;;;;;;8.23;73.52;97674.47;8319772;28;20242;-74
2022/11/28 19:07:05;;;;;;;26.07;22.00;;;;;;;9.06;66.88;97676.22;8320368;28;20233;-74